createdAt,value
2018-07-13T00:01:49.604Z,4.80
2018-07-13T00:04:17.200Z,4.23
2018-07-13T00:06:44.789Z,4.60
2018-07-13T00:09:12.781Z,4.70
2018-07-13T00:11:40.963Z,4.40
2018-07-13T00:14:14.367Z,4.40
2018-07-13T00:16:42.620Z,5.10
2018-07-13T00:19:10.496Z,4.50
2018-07-13T00:21:38.092Z,4.47
2018-07-13T00:24:07.272Z,4.63
2018-07-13T00:26:34.985Z,5.07
2018-07-13T00:29:02.651Z,4.20
2018-07-13T00:31:30.256Z,4.90
2018-07-13T00:33:58.447Z,5.07
2018-07-13T00:36:26.039Z,4.57
2018-07-13T00:38:53.641Z,5.37
2018-07-13T00:41:21.308Z,4.50
2018-07-13T00:43:49.031Z,5.20
2018-07-13T00:46:16.616Z,5.37
2018-07-13T00:48:44.343Z,4.70
2018-07-13T00:51:11.939Z,4.87
2018-07-13T00:53:39.493Z,5.20
2018-07-13T00:56:07.153Z,6.07
2018-07-13T00:58:35.784Z,5.10
2018-07-13T01:01:03.412Z,5.83
2018-07-13T01:03:31.004Z,6.53
2018-07-13T01:05:58.589Z,5.30
2018-07-13T01:08:26.192Z,6.33
2018-07-13T01:10:53.753Z,5.77
2018-07-13T01:13:21.448Z,5.80
2018-07-13T01:15:49.064Z,6.60
2018-07-13T01:18:16.696Z,5.63
2018-07-13T01:20:44.380Z,6.33
2018-07-13T01:23:12.263Z,6.70
2018-07-13T01:25:39.868Z,5.63
2018-07-13T01:28:07.540Z,6.00
2018-07-13T01:30:35.452Z,6.60
2018-07-13T01:33:03.198Z,6.23
2018-07-13T01:35:30.747Z,6.20
2018-07-13T01:38:00.361Z,6.83
2018-07-13T01:40:27.970Z,7.03
2018-07-13T01:42:55.540Z,5.97
2018-07-13T01:45:23.118Z,5.77
2018-07-13T01:47:50.720Z,6.30
2018-07-13T01:50:18.288Z,6.10
2018-07-13T01:52:45.935Z,6.80
2018-07-13T01:55:13.591Z,6.20
2018-07-13T01:57:41.308Z,6.37
2018-07-13T02:00:09.275Z,6.87
2018-07-13T02:02:36.827Z,5.70
2018-07-13T02:05:04.748Z,6.93
2018-07-13T02:07:32.367Z,6.60
2018-07-13T02:09:59.936Z,6.53
2018-07-13T02:12:27.528Z,6.73
2018-07-13T02:14:55.096Z,5.90
2018-07-13T02:17:22.812Z,7.60
2018-07-13T02:19:50.386Z,6.93
2018-07-13T02:22:17.984Z,7.10
2018-07-13T02:24:45.933Z,6.83
2018-07-13T02:27:20.925Z,7.37
2018-07-13T02:29:48.484Z,7.70
2018-07-13T02:32:16.116Z,6.23
2018-07-13T02:34:43.656Z,7.37
2018-07-13T02:37:11.246Z,7.40
2018-07-13T02:39:38.827Z,7.60
2018-07-13T02:42:06.465Z,7.53
2018-07-13T02:44:34.024Z,7.00
2018-07-13T02:47:01.639Z,7.13
2018-07-13T02:49:29.264Z,7.90
2018-07-13T02:51:56.845Z,8.17
2018-07-13T02:54:24.417Z,6.97
2018-07-13T02:56:52.047Z,8.00
2018-07-13T02:59:19.612Z,7.97
2018-07-13T03:01:48.198Z,8.30
2018-07-13T03:04:15.808Z,8.03
2018-07-13T03:06:43.398Z,7.17
2018-07-13T03:09:12.037Z,8.20
2018-07-13T03:11:39.683Z,7.43
2018-07-13T03:14:07.768Z,7.87
2018-07-13T03:16:35.856Z,8.33
2018-07-13T03:19:03.479Z,7.83
2018-07-13T03:21:31.089Z,8.10
2018-07-13T03:23:58.652Z,7.30
2018-07-13T03:26:26.240Z,6.67
2018-07-13T03:28:53.874Z,7.77
2018-07-13T03:31:21.612Z,9.37
2018-07-13T03:33:49.204Z,8.20
2018-07-13T03:36:16.827Z,8.30
2018-07-13T03:38:44.458Z,8.47
2018-07-13T03:41:12.148Z,8.20
2018-07-13T03:43:39.720Z,8.67
2018-07-13T03:46:07.472Z,8.97
2018-07-13T03:48:35.035Z,8.63
2018-07-13T03:51:03.813Z,8.30
2018-07-13T03:53:31.399Z,7.50
2018-07-13T03:55:59.000Z,8.33
2018-07-13T03:58:26.588Z,8.17
2018-07-13T04:00:54.160Z,7.87
2018-07-13T04:03:21.743Z,8.30
2018-07-13T04:05:49.335Z,7.37
2018-07-13T04:08:16.907Z,7.67
2018-07-13T04:10:44.504Z,8.07
2018-07-13T04:13:12.076Z,8.27
2018-07-13T04:15:40.508Z,8.47
2018-07-13T04:18:12.924Z,8.30
2018-07-13T04:20:40.523Z,8.43
2018-07-13T04:23:08.200Z,6.70
2018-07-13T04:25:35.851Z,8.07
2018-07-13T04:28:03.515Z,7.83
2018-07-13T04:30:31.099Z,7.33
2018-07-13T04:32:58.685Z,7.13
2018-07-13T04:35:26.241Z,7.10
2018-07-13T04:37:53.880Z,7.63
2018-07-13T04:40:21.520Z,7.10
2018-07-13T04:42:49.144Z,8.70
2018-07-13T04:45:16.784Z,7.23
2018-07-13T04:47:44.419Z,7.23
2018-07-13T04:50:12.093Z,6.40
2018-07-13T04:52:39.788Z,6.70
2018-07-13T04:55:07.416Z,7.20
2018-07-13T04:57:35.084Z,7.40
2018-07-13T05:00:02.745Z,7.20
2018-07-13T05:02:30.406Z,7.70
2018-07-13T05:04:58.089Z,7.43
2018-07-13T05:07:25.764Z,6.73
2018-07-13T05:09:53.420Z,7.20
2018-07-13T05:12:21.000Z,7.37
2018-07-13T05:14:48.501Z,6.40
2018-07-13T05:17:16.092Z,6.30
2018-07-13T05:19:43.752Z,6.37
2018-07-13T05:22:11.436Z,7.10
2018-07-13T05:24:39.080Z,7.77
2018-07-13T05:27:06.728Z,6.37
2018-07-13T05:29:34.447Z,6.07
2018-07-13T05:32:02.071Z,6.73
2018-07-13T05:34:29.729Z,5.90
2018-07-13T05:36:57.400Z,6.73
2018-07-13T05:39:24.967Z,6.37
2018-07-13T05:41:52.479Z,5.47
2018-07-13T05:44:20.187Z,6.27
2018-07-13T05:46:47.708Z,6.03
2018-07-13T05:49:15.463Z,6.20
2018-07-13T05:51:43.124Z,5.90
2018-07-13T05:54:11.559Z,5.67
2018-07-13T05:56:39.192Z,6.20
2018-07-13T05:59:06.875Z,5.30
2018-07-13T06:01:34.496Z,5.80
2018-07-13T06:04:03.243Z,5.63
2018-07-13T06:06:30.844Z,5.30
2018-07-13T06:08:58.521Z,5.97
2018-07-13T06:11:26.175Z,5.97
2018-07-13T06:13:53.796Z,5.00
2018-07-13T06:16:21.360Z,5.50
2018-07-13T06:18:48.932Z,5.90
2018-07-13T06:21:16.515Z,5.20
2018-07-13T06:23:44.140Z,6.10
2018-07-13T06:26:11.712Z,5.77
2018-07-13T06:28:39.356Z,5.90
2018-07-13T06:31:07.104Z,5.70
2018-07-13T06:33:34.732Z,5.37
2018-07-13T06:36:02.380Z,5.70
2018-07-13T06:38:30.018Z,6.07
2018-07-13T06:40:57.672Z,4.63
2018-07-13T06:43:25.331Z,6.00
2018-07-13T06:45:52.908Z,5.50
2018-07-13T06:48:20.565Z,5.80
2018-07-13T06:50:48.212Z,5.50
2018-07-13T06:53:16.932Z,5.40
2018-07-13T06:55:44.699Z,5.27
2018-07-13T06:58:24.797Z,6.40
2018-07-13T07:00:58.940Z,5.20
2018-07-13T07:03:27.731Z,5.80
2018-07-13T07:06:13.311Z,4.40
2018-07-13T07:08:47.371Z,5.40
2018-07-13T07:11:15.412Z,4.83
2018-07-13T07:13:44.307Z,5.40
2018-07-13T07:16:11.967Z,5.87
2018-07-13T07:18:39.565Z,4.63
2018-07-13T07:21:07.388Z,4.67
2018-07-13T07:23:35.324Z,4.70
2018-07-13T07:26:03.611Z,4.80
2018-07-13T07:28:31.240Z,4.60
2018-07-13T07:30:59.856Z,4.17
2018-07-13T07:33:27.461Z,4.40
2018-07-13T07:35:55.084Z,4.67
2018-07-13T07:38:22.702Z,4.43
2018-07-13T07:40:50.372Z,4.53
2018-07-13T07:43:18.636Z,4.10
2018-07-13T07:45:46.227Z,5.50
2018-07-13T07:48:13.827Z,5.07
2018-07-13T07:50:41.331Z,4.17
2018-07-13T07:53:08.960Z,4.87
2018-07-13T07:55:36.588Z,4.77
2018-07-13T07:58:04.492Z,5.10
2018-07-13T08:00:32.092Z,4.37
2018-07-13T08:02:59.648Z,4.43
2018-07-13T08:05:27.255Z,4.30
2018-07-13T08:07:54.822Z,4.00
2018-07-13T08:10:22.428Z,4.10
2018-07-13T08:12:50.305Z,3.73
2018-07-13T08:15:17.940Z,3.70
2018-07-13T08:17:45.516Z,3.43
2018-07-13T08:20:17.740Z,3.80
2018-07-13T08:22:49.545Z,3.40
2018-07-13T08:25:17.212Z,4.00
2018-07-13T08:27:46.297Z,4.07
2018-07-13T08:30:18.064Z,3.70
2018-07-13T08:32:46.157Z,4.37
2018-07-13T08:35:13.774Z,4.03
2018-07-13T08:37:41.395Z,3.37
2018-07-13T08:40:10.040Z,4.03
2018-07-13T08:42:37.752Z,3.40
2018-07-13T08:45:05.275Z,3.97
2018-07-13T08:47:32.901Z,3.83
2018-07-13T08:50:00.467Z,3.83
2018-07-13T08:52:28.132Z,4.00
2018-07-13T08:54:56.200Z,3.93
2018-07-13T08:57:23.836Z,3.90
2018-07-13T08:59:51.565Z,4.00
2018-07-13T09:02:19.128Z,3.83
2018-07-13T09:04:46.748Z,3.50
2018-07-13T09:07:14.348Z,4.13
2018-07-13T09:09:41.887Z,3.50
2018-07-13T09:12:09.491Z,3.20
2018-07-13T09:14:37.095Z,3.50
2018-07-13T09:17:04.768Z,3.73
2018-07-13T09:19:32.376Z,3.43
2018-07-13T09:21:59.949Z,3.73
2018-07-13T09:24:27.560Z,3.43
2018-07-13T09:26:55.167Z,3.60
2018-07-13T09:29:22.789Z,2.90
2018-07-13T09:31:50.315Z,3.70
2018-07-13T09:34:17.964Z,3.23
2018-07-13T09:36:45.613Z,3.87
2018-07-13T09:39:13.187Z,3.90
2018-07-13T09:41:40.844Z,2.93
2018-07-13T09:44:08.437Z,3.20
2018-07-13T09:46:36.072Z,3.47
2018-07-13T09:49:03.656Z,3.57
2018-07-13T09:51:31.215Z,3.03
2018-07-13T09:53:58.864Z,3.60
2018-07-13T09:56:26.436Z,3.30
2018-07-13T09:58:54.016Z,2.80
2018-07-13T10:01:23.030Z,2.83
2018-07-13T10:03:50.656Z,3.40
2018-07-13T10:06:18.311Z,3.33
2018-07-13T10:08:45.942Z,2.90
2018-07-13T10:11:13.661Z,3.13
2018-07-13T10:13:41.413Z,2.70
2018-07-13T10:16:09.056Z,3.07
2018-07-13T10:18:36.736Z,2.70
2018-07-13T10:21:05.968Z,3.17
2018-07-13T10:23:33.644Z,2.93
2018-07-13T10:26:07.483Z,2.90
2018-07-13T10:28:37.780Z,2.53
2018-07-13T10:31:05.848Z,2.50
2018-07-13T10:33:34.095Z,2.77
2018-07-13T10:36:02.101Z,2.60
2018-07-13T10:38:29.708Z,2.77
2018-07-13T10:40:57.188Z,2.50
2018-07-13T10:43:24.816Z,2.23
2018-07-13T10:45:52.536Z,2.77
2018-07-13T10:48:20.052Z,2.90
2018-07-13T10:50:47.653Z,2.60
2018-07-13T10:53:15.232Z,2.77
2018-07-13T10:55:42.816Z,3.27
2018-07-13T10:58:10.392Z,2.93
2018-07-13T11:00:37.972Z,2.40
2018-07-13T11:03:05.542Z,2.70
2018-07-13T11:05:33.132Z,2.60
2018-07-13T11:08:00.746Z,2.67
2018-07-13T11:10:28.212Z,3.00
2018-07-13T11:12:55.867Z,2.40
2018-07-13T11:15:23.891Z,3.00
2018-07-13T11:17:51.529Z,2.70
2018-07-13T11:20:19.086Z,2.80
2018-07-13T11:22:46.654Z,2.50
2018-07-13T11:25:14.256Z,2.80
2018-07-13T11:27:41.832Z,2.63
2018-07-13T11:30:09.400Z,3.20
2018-07-13T11:32:36.976Z,3.37
2018-07-13T11:35:04.579Z,2.77
2018-07-13T11:37:32.140Z,2.77
2018-07-13T11:39:59.603Z,3.07
2018-07-13T11:42:27.142Z,3.07
2018-07-13T11:44:54.716Z,2.63
2018-07-13T11:47:22.223Z,3.17
2018-07-13T11:49:49.833Z,2.50
2018-07-13T11:52:17.428Z,3.20
2018-07-13T11:54:45.129Z,2.40
2018-07-13T11:57:12.771Z,2.80
2018-07-13T11:59:40.332Z,2.90
2018-07-13T12:02:07.928Z,2.90
2018-07-13T12:04:35.533Z,2.90
2018-07-13T12:07:03.137Z,2.67
2018-07-13T12:09:30.689Z,2.50
2018-07-13T12:11:58.259Z,2.67
2018-07-13T12:14:25.892Z,2.90
2018-07-13T12:16:53.396Z,2.80
2018-07-13T12:19:20.865Z,2.40
2018-07-13T12:21:48.390Z,2.80
2018-07-13T12:24:16.244Z,2.63
2018-07-13T12:26:43.841Z,2.63
2018-07-13T12:29:11.319Z,2.80
2018-07-13T12:31:38.895Z,2.60
2018-07-13T12:34:06.437Z,3.07
2018-07-13T12:36:34.060Z,2.30
2018-07-13T12:39:01.621Z,2.70
2018-07-13T12:41:29.197Z,2.90
2018-07-13T12:43:56.784Z,3.10
2018-07-13T12:46:24.341Z,2.70
2018-07-13T12:48:51.945Z,2.57
2018-07-13T12:51:19.519Z,2.30
2018-07-13T12:53:47.116Z,2.73
2018-07-13T12:56:14.672Z,3.20
2018-07-13T12:58:42.261Z,2.70
2018-07-13T13:01:09.824Z,2.47
2018-07-13T13:03:37.420Z,2.07
2018-07-13T13:06:05.036Z,2.77
2018-07-13T13:08:32.609Z,2.30
2018-07-13T13:11:00.392Z,2.20
2018-07-13T13:13:28.956Z,2.40
2018-07-13T13:15:56.541Z,2.17
2018-07-13T13:18:24.108Z,2.40
2018-07-13T13:20:51.672Z,2.40
2018-07-13T13:23:19.168Z,2.60
2018-07-13T13:25:46.749Z,2.50
2018-07-13T13:28:14.304Z,2.60
2018-07-13T13:30:41.992Z,2.60
2018-07-13T13:33:09.559Z,2.50
2018-07-13T13:35:38.224Z,2.20
2018-07-13T13:38:05.833Z,2.40
2018-07-13T13:40:33.467Z,2.53
2018-07-13T13:43:01.012Z,1.90
2018-07-13T13:45:28.590Z,2.20
2018-07-13T13:47:56.068Z,2.60
2018-07-13T13:50:23.705Z,2.77
2018-07-13T13:52:51.252Z,2.40
2018-07-13T13:55:18.852Z,2.60
2018-07-13T13:57:46.431Z,2.23
2018-07-13T14:00:14.069Z,2.53
2018-07-13T14:02:41.650Z,2.07
2018-07-13T14:05:09.316Z,1.90
2018-07-13T14:07:36.835Z,2.50
2018-07-13T14:10:04.429Z,2.30
2018-07-13T14:12:32.020Z,1.63
2018-07-13T14:14:59.592Z,2.00
2018-07-13T14:17:27.172Z,2.20
2018-07-13T14:19:54.776Z,2.10
2018-07-13T14:22:22.320Z,2.20
2018-07-13T14:24:49.912Z,2.00
2018-07-13T14:27:17.478Z,2.20
2018-07-13T14:29:45.080Z,2.07
2018-07-13T14:32:12.636Z,2.10
2018-07-13T14:34:40.268Z,2.20
2018-07-13T14:37:07.820Z,2.30
2018-07-13T14:39:35.399Z,2.10
2018-07-13T14:42:02.916Z,2.00
2018-07-13T14:44:30.524Z,1.93
2018-07-13T14:46:58.174Z,2.27
2018-07-13T14:49:25.727Z,2.00
2018-07-13T14:51:53.317Z,2.40
2018-07-13T14:54:20.908Z,2.60
2018-07-13T14:56:48.568Z,2.70
2018-07-13T14:59:16.120Z,2.90
2018-07-13T15:01:43.785Z,2.20
2018-07-13T15:04:11.370Z,2.90
2018-07-13T15:06:39.010Z,2.13
2018-07-13T15:09:07.036Z,2.60
2018-07-13T15:11:34.559Z,2.33
2018-07-13T15:14:02.120Z,1.90
2018-07-13T15:16:29.711Z,2.30
2018-07-13T15:18:57.225Z,2.53
2018-07-13T15:21:24.781Z,2.47
2018-07-13T15:23:52.356Z,2.13
2018-07-13T15:26:19.953Z,2.73
2018-07-13T15:28:47.550Z,2.43
2018-07-13T15:31:15.115Z,2.30
2018-07-13T15:33:42.712Z,2.30
2018-07-13T15:36:10.276Z,2.30
2018-07-13T15:38:37.807Z,2.20
2018-07-13T15:41:05.395Z,2.00
2018-07-13T15:43:32.983Z,2.03
2018-07-13T15:46:00.564Z,1.93
2018-07-13T15:48:28.131Z,1.90
2018-07-13T15:50:55.764Z,2.70
2018-07-13T15:53:24.361Z,2.00
2018-07-13T15:55:57.050Z,2.20
2018-07-13T15:58:24.938Z,1.73
2018-07-13T16:00:52.672Z,1.80
2018-07-13T16:03:20.339Z,1.90
2018-07-13T16:05:47.992Z,2.57
2018-07-13T16:08:15.614Z,2.43
2018-07-13T16:10:43.223Z,2.07
2018-07-13T16:13:10.848Z,1.93
2018-07-13T16:15:38.449Z,2.17
2018-07-13T16:18:06.113Z,2.00
2018-07-13T16:20:33.685Z,2.30
2018-07-13T16:23:01.371Z,1.93
2018-07-13T16:25:28.929Z,2.30
2018-07-13T16:27:56.395Z,2.20
2018-07-13T16:30:23.871Z,2.03
2018-07-13T16:32:51.444Z,1.87
2018-07-13T16:35:19.040Z,1.77
2018-07-13T16:37:46.672Z,1.80
2018-07-13T16:40:14.297Z,2.47
2018-07-13T16:42:41.882Z,2.27
2018-07-13T16:45:09.517Z,11.50
2018-07-13T16:47:37.073Z,4.57
2018-07-13T16:50:05.697Z,2.13
2018-07-13T16:52:33.335Z,2.60
2018-07-13T16:55:00.896Z,2.00
2018-07-13T16:57:28.592Z,2.13
2018-07-13T16:59:56.172Z,1.83
2018-07-13T17:02:23.821Z,1.83
2018-07-13T17:04:51.419Z,2.27
2018-07-13T17:07:18.924Z,2.10
2018-07-13T17:09:46.505Z,2.20
2018-07-13T17:12:14.072Z,2.00
2018-07-13T17:14:41.744Z,2.13
2018-07-13T17:17:09.294Z,2.07
2018-07-13T17:19:36.871Z,2.03
2018-07-13T17:22:04.555Z,2.13
2018-07-13T17:24:32.141Z,2.80
2018-07-13T17:26:59.769Z,2.77
2018-07-13T17:29:27.344Z,2.47
2018-07-13T17:31:54.908Z,2.50
2018-07-13T17:34:22.501Z,2.37
2018-07-13T17:36:50.232Z,3.20
2018-07-13T17:39:17.834Z,11.77
2018-07-13T17:41:45.452Z,4.70
2018-07-13T17:44:13.023Z,3.23
2018-07-13T17:46:40.636Z,2.63
2018-07-13T17:49:08.101Z,2.77
2018-07-13T17:51:35.692Z,2.53
2018-07-13T17:54:03.307Z,2.70
2018-07-13T17:56:30.988Z,3.23
2018-07-13T17:58:58.992Z,3.23
2018-07-13T18:01:26.580Z,2.40
2018-07-13T18:03:54.163Z,2.60
2018-07-13T18:06:21.640Z,2.87
2018-07-13T18:08:49.283Z,2.93
2018-07-13T18:11:16.876Z,3.10
2018-07-13T18:13:44.343Z,2.70
2018-07-13T18:16:12.019Z,3.10
2018-07-13T18:18:39.620Z,4.10
2018-07-13T18:21:07.224Z,25.50
2018-07-13T18:23:34.775Z,12.17
2018-07-13T18:26:02.381Z,3.13
2018-07-13T18:28:29.974Z,7.97
2018-07-13T18:30:57.572Z,3.50
2018-07-13T18:33:25.165Z,3.10
2018-07-13T18:35:52.679Z,3.10
2018-07-13T18:38:20.296Z,3.60
2018-07-13T18:40:47.772Z,3.30
2018-07-13T18:43:15.348Z,3.17
2018-07-13T18:45:42.909Z,4.00
2018-07-13T18:48:10.528Z,3.40
2018-07-13T18:50:38.117Z,3.67
2018-07-13T18:53:05.695Z,3.50
2018-07-13T18:55:33.268Z,5.33
2018-07-13T18:58:00.895Z,3.93
2018-07-13T19:00:28.496Z,3.10
2018-07-13T19:02:56.160Z,3.20
2018-07-13T19:05:23.891Z,4.13
2018-07-13T19:07:51.451Z,3.50
2018-07-13T19:10:19.016Z,3.57
2018-07-13T19:12:46.604Z,3.00
2018-07-13T19:15:14.232Z,3.50
2018-07-13T19:17:41.811Z,3.23
2018-07-13T19:20:09.395Z,3.87
2018-07-13T19:22:37.085Z,3.33
2018-07-13T19:25:04.672Z,2.93
2018-07-13T19:27:32.280Z,3.40
2018-07-13T19:29:59.844Z,3.70
2018-07-13T19:32:27.361Z,3.40
2018-07-13T19:34:54.940Z,3.20
2018-07-13T19:37:23.566Z,3.10
2018-07-13T19:39:51.132Z,3.30
2018-07-13T19:42:18.752Z,3.40
2018-07-13T19:44:46.329Z,3.30
2018-07-13T19:47:13.821Z,3.57
2018-07-13T19:49:41.383Z,3.27
2018-07-13T19:52:08.961Z,3.60
2018-07-13T19:54:36.520Z,4.00
2018-07-13T19:57:04.274Z,3.63
2018-07-13T19:59:31.759Z,3.07
2018-07-13T20:01:59.323Z,4.20
2018-07-13T20:04:26.896Z,3.50
2018-07-13T20:06:54.488Z,3.90
2018-07-13T20:09:22.044Z,4.13
2018-07-13T20:11:49.631Z,4.17
2018-07-13T20:14:17.186Z,3.60
2018-07-13T20:16:44.829Z,2.90
2018-07-13T20:19:12.367Z,4.13
2018-07-13T20:21:39.939Z,4.30
2018-07-13T20:24:07.552Z,3.70
2018-07-13T20:26:35.257Z,3.67
2018-07-13T20:29:02.816Z,4.80
2018-07-13T20:31:30.431Z,3.67
2018-07-13T20:33:58.016Z,4.07
2018-07-13T20:36:25.515Z,4.13
2018-07-13T20:38:53.067Z,3.70
2018-07-13T20:41:21.705Z,4.70
2018-07-13T20:43:49.167Z,4.60
2018-07-13T20:46:16.779Z,5.13
2018-07-13T20:48:44.356Z,7.30
2018-07-13T20:51:11.951Z,4.53
2018-07-13T20:53:39.528Z,4.50
2018-07-13T20:56:07.029Z,4.50
2018-07-13T20:58:34.633Z,4.37
2018-07-13T21:01:02.127Z,4.67
2018-07-13T21:03:29.688Z,7.70
2018-07-13T21:05:57.279Z,4.73
2018-07-13T21:08:24.853Z,4.03
2018-07-13T21:10:52.458Z,3.90
2018-07-13T21:13:20.023Z,4.47
2018-07-13T21:15:47.592Z,4.03
2018-07-13T21:18:15.169Z,3.70
2018-07-13T21:20:42.764Z,4.50
2018-07-13T21:23:10.368Z,3.93
2018-07-13T21:25:37.970Z,3.77
2018-07-13T21:28:05.671Z,3.90
2018-07-13T21:30:33.221Z,3.57
2018-07-13T21:33:00.856Z,3.90
2018-07-13T21:35:28.415Z,3.33
2018-07-13T21:37:56.000Z,4.47
2018-07-13T21:40:23.610Z,4.30
2018-07-13T21:42:51.231Z,4.03
2018-07-13T21:45:18.868Z,3.80
2018-07-13T21:47:46.400Z,4.53
2018-07-13T21:50:13.958Z,3.70
2018-07-13T21:52:41.568Z,4.17
2018-07-13T21:57:40.930Z,4.60
2018-07-13T22:00:08.564Z,4.80
2018-07-13T22:02:36.284Z,4.43
2018-07-13T22:05:03.905Z,4.67
2018-07-13T22:07:31.485Z,4.60
2018-07-13T22:09:59.077Z,4.07
2018-07-13T22:12:26.689Z,5.83
2018-07-13T22:14:54.294Z,6.10
2018-07-13T22:17:21.932Z,5.30
2018-07-13T22:19:49.590Z,4.33
2018-07-13T22:22:17.234Z,4.70
2018-07-13T22:24:45.422Z,4.67
2018-07-13T22:27:13.041Z,4.40
2018-07-13T22:29:40.653Z,4.37
2018-07-13T22:32:08.292Z,5.37
2018-07-13T22:34:35.903Z,5.00
2018-07-13T22:37:03.537Z,5.60
2018-07-13T22:39:31.116Z,4.57
2018-07-13T22:41:58.702Z,5.03
2018-07-13T22:44:26.280Z,5.47
2018-07-13T22:46:53.929Z,5.67
2018-07-13T22:49:21.589Z,5.43
2018-07-13T22:51:49.210Z,5.80
2018-07-13T22:54:16.812Z,4.80
2018-07-13T22:56:44.497Z,5.13
2018-07-13T22:59:12.010Z,4.73
2018-07-13T23:01:39.649Z,6.10
2018-07-13T23:04:07.433Z,14.53
2018-07-13T23:06:35.229Z,15.80
2018-07-13T23:09:03.897Z,9.77
2018-07-13T23:11:31.549Z,9.23
2018-07-13T23:13:59.134Z,7.40
2018-07-13T23:16:26.802Z,5.97
2018-07-13T23:18:54.370Z,5.33
2018-07-13T23:21:22.777Z,5.87
2018-07-13T23:23:50.370Z,6.17
2018-07-13T23:26:17.965Z,5.13
2018-07-13T23:28:45.594Z,5.53
2018-07-13T23:31:13.221Z,5.77
2018-07-13T23:33:40.838Z,5.47
2018-07-13T23:36:09.433Z,5.30
2018-07-13T23:38:37.037Z,5.33
2018-07-13T23:41:04.653Z,5.73
2018-07-13T23:43:32.780Z,5.87
2018-07-13T23:46:01.074Z,5.67
2018-07-13T23:48:28.644Z,5.60
2018-07-13T23:50:56.308Z,5.97
2018-07-13T23:53:23.911Z,5.50
2018-07-13T23:55:51.520Z,5.43
2018-07-13T23:58:19.105Z,6.00
